False Pass, AK

9:29 AM AKDT on September 19, 2014 (GMT -0800)
False Pass | Change Station
CLOSE
Current Station
Airport
Location: False Pass,
Elevation: 20 ft
Nearby Weather Stations

Elev 20 ft 54.85 °N, 163.41 °W | Updated 1 hour ago

Light Rain
Light Rain
50 °F
Feels Like 50 °F
N
24
Wind Variable Wind from West
Gusts 44 mph

Today
High -- | Low -- °F
--% Chance of Precip.
Yesterday
High -- | Low -- °F
Precip. -- in
8:34 AM 8:59 PM
Waning Crescent, 18% visible
Pressure 29.78 in
Visibility 9.0 miles
Clouds Mostly Cloudy 2000 ft
Overcast 3900 ft
Dew Point 44 °F
Humidity 80%
Rainfall 0.56 in
Snow Depth 1 in , 5 in , 5 in
UV 0 out of 12
Pollen Not available.
Air Quality Not available.
Flu Activity Not available.
METAR PAKF 191601Z AUTO 28021G38KT 9SM -RA BKN020 OVC039 10/07 A2950 RMK AO2 PK WND 29040/1524 SLP084 P0010 T01000067 $

More Conditions Fewer Conditions

Pressure 29.78 in
Visibility 9.0 miles
Clouds Mostly Cloudy 2000 ft
Overcast 3900 ft
Dew Point 44 °F
Humidity 80%
Rainfall 0.56 in
Snow Depth 1 in , 5 in , 5 in
UV 0 out of 12
Pollen Not available.
Air Quality Not available.
Flu Activity Not available.
METAR PAKF 191601Z AUTO 28021G38KT 9SM -RA BKN020 OVC039 10/07 A2950 RMK AO2 PK WND 29040/1524 SLP084 P0010 T01000067 $

More Conditions Fewer Conditions

10-Day Weather Forecast

Almanac

Astronomy

Sep. 19, 2014 Rise Set
Actual Time 8:34 AM AKDT 8:59 PM AKDT
Civil Twilight 7:57 AM AKDT 9:35 PM AKDT
Nautical Twilight 7:14 AM AKDT 10:18 PM AKDT
Astronomical Twilight 6:28 AM AKDT 11:04 PM AKDT
Moon 3:58 AM AKDT 7:02 PM AKDT
Length of Visible Light 13h 37m
Length of Day
12h 25m
Tomorrow will be 4m 26s shorter.
Waning Crescent, 18% of the Moon is Illuminated
Today
Waning Crescent
Sep 24
New
Oct 1
First Quarter
Oct 8
Full
Oct 15
Last Quarter

Today's Extremes

State Highs State Lows

Community

WunderPhotos

Upload Photos

1,754,658 photos uploaded!

Nearby

Snow Depth

Station Depth Elevation
Upper Chena 1 in 2850 ft
Rocky Point 5 in 500 ft
MF Bradley River 5 in 2300 ft
Eagle Summit 0 in 3650 ft
Imnaviat Creek 0 in 3050 ft

Earthquake Activity

City Distance Mag. Time & Date
No recent earthquake activity has been reported nearby.
Minimum magnitude displayed is 2.5.

Coastal Water Temperatures

Place Temperature
No Stations Reporting

Nearby Weather Stations